Time;durP1;ratioP1;P1;durP2;ratioP2;P2;SDS_P1;SDS_P2;PMS_P1;PMS_P2;Temp;Humidity;BMP_temperature;BMP_pressure;BME280_temperature;BME280_humidity;BME280_pressure;Samples;Min_cycle;Max_cycle;Signal;HPM_P1;HPM_P2
2022/01/28 00:01:45;;;;;;;9.70;1.98;;;8.60;73.50;;;;;;4972842;28;20082;-48
2022/01/28 00:04:14;;;;;;;11.52;2.63;;;8.60;73.60;;;;;;4977609;28;20104;-48
2022/01/28 00:06:41;;;;;;;7.28;2.08;;;8.60;73.60;;;;;;4968785;28;20623;-48
2022/01/28 00:09:08;;;;;;;8.45;1.90;;;8.50;73.60;;;;;;4973442;28;20043;-48
2022/01/28 00:11:35;;;;;;;7.90;1.60;;;8.50;73.60;;;;;;4970052;28;20051;-48
2022/01/28 00:14:18;;;;;;;8.43;2.65;;;8.50;73.60;;;;;;4975060;28;20039;-48
2022/01/28 00:20:02;;;;;;;7.60;2.30;;;8.50;73.60;;;;;;4975582;28;20078;-47
2022/01/28 00:38:46;;;;;;;8.57;2.05;;;8.30;73.40;;;;;;4977080;28;20085;-48
2022/01/28 00:41:14;;;;;;;8.90;2.53;;;8.30;73.40;;;;;;4991549;28;20506;-48
2022/01/28 00:43:41;;;;;;;6.57;2.08;;;8.30;73.40;;;;;;4976241;28;20476;-49
2022/01/28 00:46:08;;;;;;;9.60;2.17;;;8.30;73.40;;;;;;4970849;28;20049;-48
2022/01/28 00:48:37;;;;;;;9.68;2.50;;;8.30;73.40;;;;;;4986413;28;20050;-47
2022/01/28 00:51:05;;;;;;;11.98;2.25;;;8.20;73.40;;;;;;4952465;28;20051;-48
2022/01/28 00:53:32;;;;;;;7.35;1.73;;;8.20;73.30;;;;;;4952341;28;20067;-50
2022/01/28 00:55:58;;;;;;;5.95;2.03;;;8.20;73.30;;;;;;4976374;28;20065;-48
2022/01/28 00:58:26;;;;;;;9.32;2.00;;;8.20;73.30;;;;;;4990446;28;20078;-49
2022/01/28 01:00:53;;;;;;;7.53;1.88;;;8.10;73.20;;;;;;4975382;28;20093;-49
2022/01/28 01:03:22;;;;;;;3.78;1.85;;;8.10;73.10;;;;;;4962717;28;20062;-48
2022/01/28 01:05:48;;;;;;;7.28;2.47;;;8.10;73.10;;;;;;4960357;28;20499;-49
2022/01/28 01:08:15;;;;;;;10.15;2.45;;;8.10;73.10;;;;;;4990397;28;20070;-49
2022/01/28 01:10:42;;;;;;;8.15;2.25;;;8.10;73.10;;;;;;4990783;28;20042;-47
2022/01/28 01:13:14;;;;;;;9.30;2.30;;;8.10;73.00;;;;;;4981832;28;20043;-48
2022/01/28 01:15:46;;;;;;;8.03;1.60;;;8.10;72.90;;;;;;4984458;28;20038;-47
2022/01/28 01:18:20;;;;;;;9.07;2.60;;;8.10;72.90;;;;;;4989218;28;20410;-49
2022/01/28 01:23:26;;;;;;;5.65;1.92;;;8.10;72.70;;;;;;4976085;28;20117;-48
2022/01/28 01:26:06;;;;;;;8.20;2.75;;;8.00;72.60;;;;;;4988455;28;20092;-49
2022/01/28 01:28:37;;;;;;;4.95;2.05;;;8.00;72.60;;;;;;4970898;28;20083;-47
2022/01/28 01:31:07;;;;;;;6.45;2.30;;;8.00;72.60;;;;;;4972650;28;20046;-48
2022/01/28 01:33:43;;;;;;;8.73;1.92;;;8.00;72.60;;;;;;4979212;28;20454;-50
2022/01/28 01:36:10;;;;;;;6.72;1.63;;;7.90;72.50;;;;;;4976953;28;20391;-48
2022/01/28 01:38:39;;;;;;;4.97;2.00;;;7.90;72.50;;;;;;4988331;28;20057;-48
2022/01/28 01:41:12;;;;;;;5.78;1.33;;;7.90;72.50;;;;;;4969724;28;20077;-49
2022/01/28 01:46:31;;;;;;;5.57;2.13;;;7.90;72.50;;;;;;4990375;28;20596;-47
2022/01/28 01:54:41;;;;;;;9.38;2.17;;;7.80;72.60;;;;;;4989472;28;20042;-48
2022/01/28 01:57:10;;;;;;;9.52;2.47;;;7.80;72.80;;;;;;4972518;28;20053;-50
2022/01/28 01:59:38;;;;;;;11.20;3.22;;;7.80;72.90;;;;;;4963745;28;20086;-49
2022/01/28 02:02:06;;;;;;;9.50;2.08;;;7.80;73.00;;;;;;4960484;28;20091;-48
2022/01/28 02:04:33;;;;;;;7.20;1.83;;;7.70;73.00;;;;;;4991588;28;20038;-48
2022/01/28 02:07:01;;;;;;;7.90;2.05;;;7.70;73.10;;;;;;4981766;28;20070;-47
2022/01/28 02:09:28;;;;;;;4.97;1.73;;;7.70;73.20;;;;;;4973980;28;20054;-49
2022/01/28 02:11:55;;;;;;;7.82;2.38;;;7.70;73.30;;;;;;4989490;28;20502;-48
2022/01/28 02:14:22;;;;;;;7.90;2.47;;;7.70;73.70;;;;;;4993501;28;20105;-48
2022/01/28 02:16:49;;;;;;;8.80;2.70;;;7.70;73.40;;;;;;4974935;28;20054;-49
2022/01/28 02:19:16;;;;;;;6.68;2.45;;;7.70;73.40;;;;;;4973767;28;20481;-47
2022/01/28 02:21:49;;;;;;;7.78;1.95;;;7.60;73.40;;;;;;4986415;28;20070;-48
2022/01/28 02:24:25;;;;;;;8.43;1.98;;;7.70;73.50;;;;;;4992759;28;20049;-48
2022/01/28 02:26:52;;;;;;;7.28;2.38;;;7.60;73.50;;;;;;4985643;28;20562;-47
2022/01/28 02:29:28;;;;;;;8.05;2.22;;;7.70;73.60;;;;;;4966699;28;20125;-47
2022/01/28 02:31:59;;;;;;;6.70;2.00;;;7.60;73.60;;;;;;4993165;28;20045;-48
2022/01/28 02:34:28;;;;;;;8.68;2.30;;;7.70;73.60;;;;;;4983605;28;20047;-47
2022/01/28 02:36:56;;;;;;;5.53;1.83;;;7.60;73.60;;;;;;4976610;28;20039;-48
2022/01/28 02:39:22;;;;;;;11.52;2.40;;;7.60;73.60;;;;;;4983558;28;20054;-51
2022/01/28 02:41:54;;;;;;;6.75;2.22;;;7.60;73.60;;;;;;4993525;28;20101;-48
2022/01/28 02:44:41;;;;;;;9.20;1.50;;;7.60;73.50;;;;;;4974837;28;20078;-49
2022/01/28 02:47:12;;;;;;;3.97;1.92;;;7.60;73.50;;;;;;4981764;28;20065;-48
2022/01/28 02:49:39;;;;;;;7.20;1.83;;;7.60;73.40;;;;;;4992952;28;20050;-49
2022/01/28 02:52:08;;;;;;;7.53;1.92;;;7.60;73.50;;;;;;4992772;28;20034;-48
2022/01/28 02:54:44;;;;;;;10.50;2.38;;;7.60;73.50;;;;;;4977677;28;20082;-47
2022/01/28 02:57:11;;;;;;;8.35;2.42;;;7.60;73.60;;;;;;4977256;28;20089;-47
2022/01/28 02:59:38;;;;;;;7.28;1.92;;;7.50;73.60;;;;;;4989605;28;20077;-49
2022/01/28 03:02:07;;;;;;;8.52;2.33;;;7.60;73.70;;;;;;4992603;28;20070;-50
2022/01/28 03:05:02;;;;;;;8.73;1.73;;;7.50;73.70;;;;;;4986159;28;20118;-48
2022/01/28 03:07:25;;;;;;;9.15;2.58;;;7.60;73.70;;;;;;4982598;28;20050;-48
2022/01/28 03:10:24;;;;;;;9.02;2.55;;;7.60;73.70;;;;;;4990430;28;20038;-47
2022/01/28 03:15:25;;;;;;;9.18;2.60;;;7.60;73.70;;;;;;4966446;28;20039;-48
2022/01/28 03:18:09;;;;;;;6.95;1.98;;;7.50;73.60;;;;;;4985619;28;20050;-47
2022/01/28 03:20:56;;;;;;;7.03;2.28;;;7.50;73.70;;;;;;4991008;28;20102;-48
2022/01/28 03:23:24;;;;;;;10.23;2.60;;;7.50;73.60;;;;;;4981622;28;20053;-47
2022/01/28 03:25:51;;;;;;;7.80;2.22;;;7.50;73.60;;;;;;5019713;23;20077;-47
2022/01/28 03:28:21;;;;;;;5.10;1.98;;;7.50;73.60;;;;;;5027258;28;20497;-47
2022/01/28 03:30:47;;;;;;;5.70;1.95;;;7.50;73.70;;;;;;5032036;28;20065;-45
2022/01/28 03:33:14;;;;;;;14.15;1.88;;;7.50;73.80;;;;;;5021762;28;20043;-47
2022/01/28 03:35:41;;;;;;;8.35;2.53;;;7.40;73.70;;;;;;5020295;28;20076;-47
2022/01/28 03:38:11;;;;;;;7.82;2.58;;;7.50;73.70;;;;;;5023870;28;20049;-49
2022/01/28 03:40:39;;;;;;;5.78;2.10;;;7.40;73.70;;;;;;5011705;28;20073;-47
2022/01/28 03:43:06;;;;;;;10.13;2.25;;;7.40;73.70;;;;;;5012962;28;20141;-49
2022/01/28 03:45:34;;;;;;;5.75;2.20;;;7.40;73.70;;;;;;5012842;28;20484;-48
2022/01/28 03:48:03;;;;;;;6.20;2.00;;;7.40;73.60;;;;;;5010867;28;20065;-49
2022/01/28 03:50:33;;;;;;;9.50;2.83;;;7.40;73.60;;;;;;5010495;28;20497;-48
2022/01/28 03:53:02;;;;;;;8.38;2.08;;;7.40;73.60;;;;;;5011580;28;20053;-50
2022/01/28 03:55:29;;;;;;;7.80;2.38;;;7.30;73.70;;;;;;5013112;28;20064;-47
2022/01/28 03:57:55;;;;;;;5.10;2.17;;;7.30;73.70;;;;;;5012005;28;20072;-50
2022/01/28 04:00:26;;;;;;;5.35;1.67;;;7.30;73.70;;;;;;5012265;28;20128;-50
2022/01/28 04:03:08;;;;;;;8.65;2.65;;;7.30;73.70;;;;;;5009992;28;20567;-47
2022/01/28 04:13:54;;;;;;;6.20;2.00;;;7.20;73.70;;;;;;5012466;28;20073;-48
2022/01/28 04:18:49;;;;;;;8.68;1.75;;;7.10;73.80;;;;;;5010250;28;20062;-48
2022/01/28 04:21:16;;;;;;;5.45;2.15;;;7.10;73.80;;;;;;5005803;28;20076;-53
2022/01/28 04:23:43;;;;;;;7.05;2.42;;;7.10;73.90;;;;;;5015108;28;20038;-49
2022/01/28 04:26:15;;;;;;;;;;;7.10;73.90;;;;;;5017796;28;20052;-50
2022/01/28 04:28:42;;;;;;;6.90;1.70;;;7.10;74.10;;;;;;5008395;28;19925;-46
2022/01/28 04:31:08;;;;;;;9.38;2.47;;;7.10;73.70;;;;;;5009719;28;20045;-50
2022/01/28 04:33:35;;;;;;;9.90;2.03;;;7.00;73.80;;;;;;5017699;28;20049;-48
2022/01/28 04:36:03;;;;;;;10.73;2.00;;;7.00;74.00;;;;;;5030437;28;20160;-51
2022/01/28 04:38:51;;;;;;;4.88;1.67;;;7.00;74.00;;;;;;5029537;28;20045;-48
2022/01/28 04:41:29;;;;;;;7.25;1.60;;;7.00;74.10;;;;;;5008989;28;20080;-48
2022/01/28 04:44:04;;;;;;;7.68;2.53;;;7.00;74.10;;;;;;5020337;28;20509;-49
2022/01/28 04:46:48;;;;;;;9.50;2.58;;;6.90;74.10;;;;;;5030345;28;20060;-49
2022/01/28 04:49:25;;;;;;;8.25;2.28;;;6.90;74.20;;;;;;5005130;28;20041;-50
2022/01/28 05:04:56;;;;;;;10.18;2.40;;;6.90;74.90;;;;;;5009403;28;20634;-46
2022/01/28 05:08:03;;;;;;;7.80;1.55;;;6.90;74.80;;;;;;5001249;28;20080;-49
2022/01/28 05:15:46;;;;;;;9.30;2.58;;;6.90;74.50;;;;;;5017311;28;20038;-46
2022/01/28 05:28:42;;;;;;;10.60;2.70;;;6.80;74.60;;;;;;5017570;28;20497;-48
2022/01/28 05:31:09;;;;;;;6.07;2.15;;;6.80;74.60;;;;;;5017200;28;20077;-49
2022/01/28 05:33:36;;;;;;;12.20;2.45;;;6.80;74.80;;;;;;5008005;28;20041;-50
2022/01/28 05:36:03;;;;;;;12.93;3.40;;;6.80;74.90;;;;;;5008240;28;20057;-47
2022/01/28 05:38:29;;;;;;;11.35;4.00;;;6.70;75.00;;;;;;5009852;28;20508;-48
2022/01/28 05:40:56;;;;;;;6.47;3.45;;;6.70;75.10;;;;;;5010934;28;20069;-48
2022/01/28 05:43:23;;;;;;;8.00;3.90;;;6.70;75.20;;;;;;5007730;28;20072;-45
2022/01/28 05:45:49;;;;;;;7.30;4.55;;;6.70;75.20;;;;;;5009983;28;20049;-46
2022/01/28 05:48:18;;;;;;;10.85;4.72;;;6.70;75.20;;;;;;5010827;28;20068;-48
2022/01/28 05:50:45;;;;;;;9.10;3.97;;;6.70;75.20;;;;;;5010114;28;20108;-47
2022/01/28 05:53:12;;;;;;;10.43;4.10;;;6.60;75.10;;;;;;5009439;28;20501;-46
2022/01/28 05:55:39;;;;;;;9.23;4.10;;;6.60;75.10;;;;;;5012788;28;20061;-46
2022/01/28 05:58:05;;;;;;;11.20;4.18;;;6.60;75.20;;;;;;5011402;28;20089;-46
2022/01/28 06:00:32;;;;;;;10.70;3.67;;;6.60;75.30;;;;;;5009988;28;20050;-47
2022/01/28 06:03:00;;;;;;;8.90;3.55;;;6.60;75.30;;;;;;5012774;28;20061;-46
2022/01/28 06:05:30;;;;;;;10.55;3.63;;;6.60;75.40;;;;;;5012245;28;20045;-47
2022/01/28 06:07:58;;;;;;;8.07;3.35;;;6.60;75.50;;;;;;5012353;28;20038;-46
2022/01/28 06:10:25;;;;;;;8.05;2.58;;;6.60;75.50;;;;;;5011668;28;20038;-45
2022/01/28 06:12:52;;;;;;;10.30;2.92;;;6.50;75.40;;;;;;5010395;28;20049;-44
2022/01/28 06:15:19;;;;;;;5.97;1.98;;;6.50;76.20;;;;;;5015076;28;20050;-44
2022/01/28 06:17:46;;;;;;;9.20;2.40;;;6.50;75.70;;;;;;5015242;28;20572;-45
2022/01/28 06:20:16;;;;;;;7.95;2.35;;;6.50;75.70;;;;;;5011879;28;20421;-45
2022/01/28 06:22:43;;;;;;;10.02;2.72;;;6.50;75.70;;;;;;5011048;28;20517;-46
2022/01/28 06:25:14;;;;;;;9.75;2.15;;;6.50;75.70;;;;;;5015447;28;20077;-50
2022/01/28 06:27:42;;;;;;;10.90;2.33;;;6.50;75.70;;;;;;5025501;28;20129;-51
2022/01/28 06:30:10;;;;;;;10.52;2.45;;;6.50;75.70;;;;;;5027261;28;20041;-49
2022/01/28 06:32:37;;;;;;;6.78;2.10;;;6.50;75.80;;;;;;5002754;28;20073;-51
2022/01/28 06:35:08;;;;;;;6.15;2.88;;;6.40;75.70;;;;;;5008295;28;20072;-53
2022/01/28 06:37:37;;;;;;;11.07;3.65;;;6.50;75.90;;;;;;5013446;28;20041;-52
2022/01/28 06:40:09;;;;;;;7.03;2.63;;;6.40;75.90;;;;;;5004154;28;20054;-50
2022/01/28 06:42:36;;;;;;;9.50;3.50;;;6.40;76.00;;;;;;5007599;28;20517;-49
2022/01/28 06:45:04;;;;;;;9.82;2.97;;;6.40;76.00;;;;;;5023264;28;20038;-51
2022/01/28 06:47:32;;;;;;;8.13;3.45;;;6.40;76.10;;;;;;5007539;28;20117;-50
2022/01/28 06:49:59;;;;;;;10.82;4.20;;;6.40;76.10;;;;;;5009115;28;20046;-49
2022/01/28 06:52:25;;;;;;;9.60;3.75;;;6.40;76.20;;;;;;5018830;28;20100;-49
2022/01/28 06:54:52;;;;;;;6.88;4.22;;;6.40;76.20;;;;;;5013561;28;20116;-51
2022/01/28 06:57:19;;;;;;;15.27;4.72;;;6.40;76.20;;;;;;5008627;28;20066;-51
2022/01/28 06:59:45;;;;;;;11.13;3.40;;;6.40;76.20;;;;;;5009486;28;20449;-52
2022/01/28 07:02:12;;;;;;;7.45;3.55;;;6.40;76.20;;;;;;5017104;28;20139;-53
2022/01/28 07:04:39;;;;;;;10.25;4.20;;;6.40;76.20;;;;;;5020024;28;20060;-49
2022/01/28 07:07:06;;;;;;;7.63;3.50;;;6.30;76.10;;;;;;5002780;28;20155;-49
2022/01/28 07:09:35;;;;;;;8.68;3.38;;;6.30;76.10;;;;;;5012519;28;20498;-50
2022/01/28 07:12:03;;;;;;;10.30;4.35;;;6.30;76.70;;;;;;5022316;28;20060;-50
2022/01/28 07:14:30;;;;;;;9.68;4.22;;;6.30;76.20;;;;;;5024856;28;20112;-52
2022/01/28 07:16:57;;;;;;;9.55;4.07;;;6.30;76.20;;;;;;5009943;28;20466;-50
2022/01/28 07:19:24;;;;;;;13.20;4.50;;;6.30;76.20;;;;;;5016180;28;20120;-53
2022/01/28 07:21:50;;;;;;;7.82;4.03;;;6.20;76.20;;;;;;5022390;28;20066;-51
2022/01/28 07:24:17;;;;;;;10.15;4.90;;;6.20;76.20;;;;;;5020056;28;20133;-52
2022/01/28 07:26:44;;;;;;;7.75;4.95;;;6.20;76.40;;;;;;5009771;28;20073;-53
2022/01/28 07:29:13;;;;;;;11.57;5.40;;;6.20;76.40;;;;;;5016537;28;20076;-50
2022/01/28 07:31:40;;;;;;;9.07;5.47;;;6.20;76.50;;;;;;5019552;28;20062;-49
2022/01/28 07:34:07;;;;;;;8.95;5.10;;;6.20;76.60;;;;;;5031134;28;20076;-50
2022/01/28 07:36:35;;;;;;;10.35;5.88;;;6.20;76.70;;;;;;5014083;28;20923;-52
2022/01/28 07:39:07;;;;;;;13.25;5.05;;;6.20;76.90;;;;;;5017656;28;20069;-50
2022/01/28 07:41:34;;;;;;;8.02;5.43;;;6.20;77.00;;;;;;5019318;28;20045;-50
2022/01/28 07:44:08;;;;;;;11.20;5.53;;;6.20;77.20;;;;;;5008274;28;20062;-49
2022/01/28 07:46:35;;;;;;;12.40;6.03;;;6.30;77.20;;;;;;5010447;28;20516;-53
2022/01/28 07:49:03;;;;;;;11.93;5.13;;;6.30;77.30;;;;;;5022415;28;20120;-48
2022/01/28 07:51:32;;;;;;;11.45;5.72;;;6.30;77.30;;;;;;5015232;28;20077;-49
2022/01/28 07:54:00;;;;;;;11.63;5.03;;;6.30;77.40;;;;;;5014805;28;20049;-52
2022/01/28 07:56:26;;;;;;;10.18;5.90;;;6.30;77.50;;;;;;5007320;28;20132;-53
2022/01/28 07:58:53;;;;;;;13.60;6.47;;;6.40;77.60;;;;;;5018664;28;20076;-51
2022/01/28 08:01:20;;;;;;;9.40;5.53;;;6.40;77.60;;;;;;5023427;28;20076;-53
2022/01/28 08:03:47;;;;;;;15.05;7.43;;;6.40;77.50;;;;;;5012987;28;20552;-53
2022/01/28 08:06:14;;;;;;;10.27;7.03;;;6.50;77.50;;;;;;5007324;28;20501;-53
2022/01/28 08:08:40;;;;;;;16.98;7.65;;;6.50;77.50;;;;;;5007068;28;20047;-52
2022/01/28 08:11:07;;;;;;;14.02;6.50;;;6.50;77.50;;;;;;5008229;28;20033;-53
2022/01/28 08:13:34;;;;;;;11.38;6.40;;;6.50;77.40;;;;;;5007535;28;20046;-49
2022/01/28 08:16:01;;;;;;;13.27;7.32;;;6.50;77.20;;;;;;5004838;28;20057;-49
2022/01/28 08:18:27;;;;;;;13.35;6.55;;;6.60;77.10;;;;;;5010964;28;20050;-52
2022/01/28 08:20:54;;;;;;;11.55;6.25;;;6.60;77.10;;;;;;4993137;28;20050;-51
2022/01/28 08:23:23;;;;;;;11.68;6.80;;;6.60;77.00;;;;;;5010830;28;20041;-49
2022/01/28 08:25:53;;;;;;;11.35;6.20;;;6.60;76.90;;;;;;5013283;28;20084;-53
2022/01/28 08:28:21;;;;;;;15.80;7.13;;;6.60;76.80;;;;;;5017245;28;20125;-53
2022/01/28 08:30:47;;;;;;;9.25;6.10;;;6.60;76.80;;;;;;5010745;28;20053;-53
2022/01/28 08:33:14;;;;;;;14.10;6.80;;;6.60;76.70;;;;;;5008251;28;20034;-52
2022/01/28 08:35:41;;;;;;;11.82;6.57;;;6.60;76.70;;;;;;5023110;28;20059;-51
2022/01/28 08:38:24;;;;;;;12.27;6.28;;;6.60;76.80;;;;;;5022755;28;20083;-52
2022/01/28 08:40:56;;;;;;;12.60;6.43;;;6.60;77.00;;;;;;5020970;28;20065;-53
2022/01/28 08:43:23;;;;;;;10.20;5.20;;;6.60;77.30;;;;;;5018112;28;20045;-50
2022/01/28 08:45:50;;;;;;;9.25;5.90;;;6.60;77.40;;;;;;5020783;28;20132;-52
2022/01/28 08:48:16;;;;;;;13.60;6.95;;;6.60;77.50;;;;;;5030088;28;20045;-49
2022/01/28 08:50:43;;;;;;;9.85;5.57;;;6.60;77.70;;;;;;5020838;28;20129;-53
2022/01/28 08:53:11;;;;;;;10.30;5.43;;;6.60;77.80;;;;;;5003802;28;20113;-52
2022/01/28 08:55:38;;;;;;;12.48;5.68;;;6.60;77.80;;;;;;5008287;28;20076;-50
2022/01/28 08:58:09;;;;;;;9.50;6.13;;;6.70;78.00;;;;;;4999151;28;20042;-54
2022/01/28 09:00:35;;;;;;;19.10;6.38;;;6.80;78.00;;;;;;5004833;28;20077;-50
2022/01/28 09:03:03;;;;;;;12.95;5.55;;;6.80;77.90;;;;;;5016000;28;20033;-51
2022/01/28 09:05:30;;;;;;;17.33;6.70;;;6.80;77.90;;;;;;5013418;28;20448;-50
2022/01/28 09:07:57;;;;;;;14.60;5.72;;;6.80;78.00;;;;;;5010808;28;20066;-51
2022/01/28 09:10:29;;;;;;;11.55;6.22;;;6.90;78.00;;;;;;5003154;28;20046;-49
2022/01/28 09:15:37;;;;;;;14.57;5.88;;;7.00;78.50;;;;;;5020335;28;19956;-50
2022/01/28 09:18:04;;;;;;;8.63;5.45;;;7.00;77.70;;;;;;5031159;28;20413;-51
2022/01/28 09:20:32;;;;;;;15.73;6.53;;;7.10;77.80;;;;;;5017395;28;20077;-54
2022/01/28 09:23:00;;;;;;;16.33;7.43;;;7.10;77.80;;;;;;4990844;28;20078;-52
2022/01/28 09:25:27;;;;;;;11.50;6.63;;;7.10;77.80;;;;;;5003172;28;20077;-52
2022/01/28 09:27:56;;;;;;;13.13;6.57;;;7.10;77.80;;;;;;5028768;23;20494;-54
2022/01/28 09:30:23;;;;;;;15.48;7.88;;;7.20;77.80;;;;;;5005129;28;20065;-55
2022/01/28 09:32:50;;;;;;;13.00;9.38;;;7.20;77.80;;;;;;5015309;28;20791;-57
2022/01/28 09:35:17;;;;;;;17.70;9.88;;;7.30;77.80;;;;;;5015168;28;20559;-54
2022/01/28 09:37:44;;;;;;;17.98;10.57;;;7.30;77.70;;;;;;5008551;28;20613;-53
2022/01/28 09:40:11;;;;;;;20.23;11.32;;;7.30;77.70;;;;;;5016421;28;20065;-54
2022/01/28 09:42:41;;;;;;;19.23;12.77;;;7.40;77.80;;;;;;5019469;28;20096;-54
2022/01/28 09:45:09;;;;;;;24.55;12.68;;;7.40;77.70;;;;;;5008206;28;20080;-54
2022/01/28 09:47:37;;;;;;;21.98;14.70;;;7.40;77.50;;;;;;5007658;28;20042;-52
2022/01/28 09:50:06;;;;;;;15.57;13.38;;;7.40;77.50;;;;;;5017262;28;20563;-55
2022/01/28 09:52:34;;;;;;;17.38;12.43;;;7.40;77.50;;;;;;5014928;28;20080;-54
2022/01/28 09:55:01;;;;;;;19.92;14.90;;;7.50;77.50;;;;;;5008424;28;20052;-54
2022/01/28 09:57:28;;;;;;;20.83;13.95;;;7.50;77.40;;;;;;5004594;28;20567;-55
2022/01/28 09:59:54;;;;;;;20.45;13.07;;;7.50;77.40;;;;;;4995394;28;20410;-55
2022/01/28 10:02:41;;;;;;;20.30;13.95;;;7.50;77.40;;;;;;5021637;28;20111;-54
2022/01/28 10:05:18;;;;;;;17.48;12.65;;;7.60;77.60;;;;;;5022451;28;20516;-54
2022/01/28 10:08:05;;;;;;;21.67;13.10;;;7.60;77.80;;;;;;4991264;28;20066;-55
2022/01/28 10:10:52;;;;;;;14.85;12.25;;;7.60;77.90;;;;;;5018868;28;20109;-54
2022/01/28 10:13:29;;;;;;;15.07;11.15;;;7.70;78.00;;;;;;4989436;28;20046;-55
2022/01/28 10:16:15;;;;;;;17.67;9.77;;;7.70;77.80;;;;;;4998680;28;20062;-53
2022/01/28 10:18:51;;;;;;;11.20;7.32;;;7.70;78.60;;;;;;5016791;28;20064;-54
2022/01/28 10:21:31;;;;;;;10.65;7.68;;;7.80;78.00;;;;;;5022530;28;20107;-54
2022/01/28 10:24:12;;;;;;;14.30;7.70;;;7.90;77.80;;;;;;5020858;28;20046;-55
2022/01/28 10:26:46;;;;;;;16.58;8.10;;;8.00;77.60;;;;;;5007242;28;20046;-55
2022/01/28 10:29:31;;;;;;;15.65;8.25;;;8.00;77.50;;;;;;5014041;28;20065;-54
2022/01/28 10:32:13;;;;;;;12.60;7.75;;;8.00;77.50;;;;;;5010680;28;20069;-55
2022/01/28 10:34:46;;;;;;;16.08;7.22;;;8.10;77.30;;;;;;5014009;28;20061;-51
2022/01/28 10:37:18;;;;;;;14.25;7.53;;;8.10;77.20;;;;;;5015068;28;20038;-55
2022/01/28 10:39:47;;;;;;;11.93;6.55;;;8.20;77.00;;;;;;5017410;28;20069;-55
2022/01/28 10:42:34;;;;;;;13.82;7.32;;;8.30;76.90;;;;;;5012792;28;20085;-54
2022/01/28 10:45:11;;;;;;;14.30;6.65;;;8.30;76.80;;;;;;5006564;28;20622;-55
2022/01/28 10:47:39;;;;;;;13.68;6.20;;;8.30;76.50;;;;;;5015493;28;20041;-55
2022/01/28 10:50:32;;;;;;;16.70;7.22;;;8.40;76.60;;;;;;5023961;28;20110;-54
2022/01/28 10:53:11;;;;;;;11.73;6.80;;;8.40;76.60;;;;;;5000651;28;20566;-55
2022/01/28 10:55:43;;;;;;;8.07;5.95;;;8.40;76.50;;;;;;5009776;28;20129;-56
2022/01/28 10:58:12;;;;;;;9.55;5.22;;;8.50;76.30;;;;;;5008477;28;20034;-54
2022/01/28 11:00:44;;;;;;;9.45;5.95;;;8.50;76.20;;;;;;5012321;28;20076;-54
2022/01/28 11:03:12;;;;;;;;;;;8.60;76.10;;;;;;5010494;28;20399;-55
2022/01/28 11:05:39;;;;;;;11.88;5.72;;;8.70;76.10;;;;;;5014793;28;19933;-55
2022/01/28 11:08:11;;;;;;;11.85;6.53;;;8.70;76.00;;;;;;5011778;28;20038;-55
2022/01/28 11:10:39;;;;;;;11.40;5.55;;;8.70;76.30;;;;;;5012011;28;20042;-52
2022/01/28 11:13:06;;;;;;;14.30;6.13;;;8.80;76.30;;;;;;5012126;28;20759;-54
2022/01/28 11:15:34;;;;;;;9.45;4.82;;;8.80;76.00;;;;;;5029479;28;20046;-56
2022/01/28 11:18:04;;;;;;;10.80;5.10;;;8.90;75.90;;;;;;5012422;28;20041;-54
2022/01/28 11:20:43;;;;;;;12.43;5.13;;;9.10;75.50;;;;;;4989859;28;20486;-55
2022/01/28 11:23:51;;;;;;;8.90;4.60;;;9.10;75.30;;;;;;5005081;28;20076;-55
2022/01/28 11:26:26;;;;;;;9.05;4.60;;;9.20;73.60;;;;;;4976301;28;20111;-58
2022/01/28 11:28:57;;;;;;;7.70;4.43;;;9.20;74.10;;;;;;5028461;28;20123;-57
2022/01/28 11:31:49;;;;;;;10.88;4.10;;;9.20;74.10;;;;;;4998230;28;20120;-57
2022/01/28 11:34:25;;;;;;;14.43;4.72;;;9.20;73.70;;;;;;5004131;28;20066;-57
2022/01/28 11:36:57;;;;;;;13.65;4.50;;;9.30;73.60;;;;;;5010146;28;20096;-52
2022/01/28 11:39:37;;;;;;;10.95;4.57;;;9.30;73.50;;;;;;5010467;28;20092;-55
2022/01/28 11:42:23;;;;;;;13.77;4.20;;;9.30;73.30;;;;;;5013026;28;20064;-53
2022/01/28 11:45:02;;;;;;;8.73;4.20;;;9.40;73.50;;;;;;5014286;28;20125;-55
2022/01/28 11:47:31;;;;;;;8.18;3.85;;;9.50;73.80;;;;;;5009611;28;20049;-55
2022/01/28 11:50:15;;;;;;;14.25;3.90;;;9.60;74.20;;;;;;5007107;28;20447;-53
2022/01/28 11:52:44;;;;;;;11.40;3.80;;;9.70;74.00;;;;;;5010676;28;20045;-55
2022/01/28 11:55:26;;;;;;;7.13;3.70;;;9.80;73.80;;;;;;5011183;28;20038;-55
2022/01/28 11:57:58;;;;;;;10.00;4.43;;;9.90;72.90;;;;;;5006692;28;20052;-52
2022/01/28 12:00:26;;;;;;;10.05;3.92;;;10.00;73.40;;;;;;5009253;28;20509;-55
2022/01/28 12:02:54;;;;;;;9.52;3.22;;;10.10;72.30;;;;;;5006024;28;20042;-54
2022/01/28 12:05:29;;;;;;;9.95;3.15;;;10.20;72.30;;;;;;5010779;28;20057;-55
2022/01/28 12:07:57;;;;;;;7.35;2.28;;;10.30;71.00;;;;;;5008839;28;20095;-55
2022/01/28 12:10:24;;;;;;;9.52;3.13;;;10.30;70.60;;;;;;5011304;28;20042;-55
2022/01/28 12:13:00;;;;;;;9.30;3.40;;;10.40;70.40;;;;;;5015204;28;20393;-55
2022/01/28 12:15:30;;;;;;;5.80;3.30;;;10.40;69.50;;;;;;5007966;28;20112;-52
2022/01/28 12:18:11;;;;;;;9.82;3.15;;;10.50;69.70;;;;;;5008027;28;20038;-54
2022/01/28 12:20:46;;;;;;;5.38;3.10;;;10.50;68.20;;;;;;4993718;28;20088;-55
2022/01/28 12:23:13;;;;;;;6.35;2.72;;;10.50;69.20;;;;;;5005301;28;20440;-55
2022/01/28 12:25:39;;;;;;;8.52;3.45;;;10.50;69.30;;;;;;5018228;28;20069;-53
2022/01/28 12:28:30;;;;;;;8.40;2.72;;;10.50;69.00;;;;;;5030227;28;20065;-56
2022/01/28 12:31:17;;;;;;;6.55;3.17;;;10.50;68.20;;;;;;5025173;28;20502;-54
2022/01/28 12:33:53;;;;;;;8.70;3.63;;;10.50;68.30;;;;;;5005868;28;20042;-56
2022/01/28 12:36:24;;;;;;;7.10;3.17;;;10.60;69.40;;;;;;5008347;28;20072;-55
2022/01/28 12:41:42;;;;;;;14.50;6.65;;;10.60;69.00;;;;;;5011864;28;20053;-56
2022/01/28 12:44:15;;;;;;;12.48;6.75;;;10.70;69.50;;;;;;5029665;28;20065;-56
2022/01/28 12:46:56;;;;;;;13.65;7.18;;;10.70;68.10;;;;;;5016621;28;20084;-55
2022/01/28 12:49:28;;;;;;;10.90;6.22;;;10.70;68.00;;;;;;5011715;28;20049;-56
2022/01/28 12:51:59;;;;;;;11.10;6.53;;;10.70;68.10;;;;;;5012481;28;20076;-54
2022/01/28 12:54:34;;;;;;;10.45;7.15;;;10.70;68.20;;;;;;5011161;28;20637;-55
2022/01/28 12:57:01;;;;;;;16.73;8.82;;;10.60;68.40;;;;;;5011200;28;20069;-54
2022/01/28 12:59:27;;;;;;;12.75;8.60;;;10.60;68.50;;;;;;5018135;28;20068;-56
2022/01/28 13:01:55;;;;;;;9.80;7.05;;;10.60;68.50;;;;;;5011578;28;20081;-56
2022/01/28 13:04:35;;;;;;;14.07;7.25;;;10.60;68.30;;;;;;4995795;28;20061;-54
2022/01/28 13:09:50;;;;;;;13.50;8.40;;;10.60;68.50;;;;;;5010514;28;20069;-55
2022/01/28 13:12:22;;;;;;;19.27;9.13;;;10.60;68.80;;;;;;5019205;28;20167;-56
2022/01/28 13:14:49;;;;;;;13.88;8.40;;;10.60;69.20;;;;;;4993545;28;20042;-56
2022/01/28 13:17:21;;;;;;;18.73;10.07;;;10.60;69.90;;;;;;5015085;28;20065;-56
2022/01/28 13:20:00;;;;;;;21.83;10.55;;;10.70;70.10;;;;;;5020984;28;20049;-56
2022/01/28 13:22:29;;;;;;;17.85;9.93;;;10.70;70.20;;;;;;5021435;28;20045;-55
2022/01/28 13:24:57;;;;;;;20.98;12.35;;;10.80;70.40;;;;;;5010668;28;20120;-54
2022/01/28 13:27:42;;;;;;;21.45;12.18;;;10.80;70.00;;;;;;5008603;28;20509;-55
2022/01/28 13:30:13;;;;;;;18.33;12.65;;;10.90;69.80;;;;;;5009500;28;20038;-55
2022/01/28 13:32:45;;;;;;;19.05;12.32;;;10.80;69.80;;;;;;5010208;28;20046;-55
2022/01/28 13:35:25;;;;;;;20.07;11.10;;;10.80;69.80;;;;;;5005389;28;20042;-55
2022/01/28 13:38:03;;;;;;;24.52;14.10;;;10.80;69.80;;;;;;5007531;28;20308;-56
2022/01/28 13:40:35;;;;;;;22.23;12.70;;;10.80;69.80;;;;;;5010510;28;20081;-56
2022/01/28 13:43:10;;;;;;;20.90;12.05;;;10.70;69.80;;;;;;5006874;28;20513;-55
2022/01/28 13:46:05;;;;;;;20.10;12.32;;;10.70;69.50;;;;;;5016144;28;20058;-55
2022/01/28 13:48:31;;;;;;;20.90;11.98;;;10.60;69.40;;;;;;4990810;28;20124;-56
2022/01/28 13:51:14;;;;;;;16.35;11.02;;;10.50;69.70;;;;;;5005928;28;20089;-55
2022/01/28 13:56:42;;;;;;;17.20;10.80;;;10.50;70.10;;;;;;5010425;28;19929;-56
2022/01/28 13:59:11;;;;;;;19.75;10.50;;;10.40;70.10;;;;;;5010807;28;20046;-56
2022/01/28 14:01:42;;;;;;;23.60;11.68;;;10.40;70.30;;;;;;5010338;28;20045;-56
2022/01/28 14:04:19;;;;;;;17.52;10.93;;;10.30;70.40;;;;;;5014806;28;20065;-54
2022/01/28 14:06:46;;;;;;;16.58;11.07;;;10.30;70.50;;;;;;5005562;28;20641;-55
2022/01/28 14:09:18;;;;;;;19.77;10.73;;;10.30;70.80;;;;;;5011258;28;20042;-54
2022/01/28 14:11:52;;;;;;;25.27;10.10;;;10.30;71.00;;;;;;5000098;28;20046;-55
2022/01/28 14:14:40;;;;;;;20.20;11.30;;;10.30;71.20;;;;;;5012071;28;20494;-55
2022/01/28 14:17:11;;;;;;;19.20;10.05;;;10.40;71.40;;;;;;5012085;28;20045;-54
2022/01/28 14:19:41;;;;;;;15.25;9.88;;;10.40;71.40;;;;;;5016395;28;20479;-55
2022/01/28 14:22:12;;;;;;;17.08;8.77;;;10.50;71.40;;;;;;5020580;28;20053;-56
2022/01/28 14:24:54;;;;;;;16.63;9.93;;;10.50;71.30;;;;;;5015112;28;20669;-55
2022/01/28 14:27:47;;;;;;;17.60;10.52;;;10.60;70.90;;;;;;5013634;28;20037;-55
2022/01/28 14:32:44;;;;;;;16.52;10.27;;;10.70;70.90;;;;;;5022677;28;20115;-55
2022/01/28 14:35:10;;;;;;;15.85;11.48;;;10.70;70.80;;;;;;5023585;28;20046;-56